VTBU/UTP METAR and TAF weather

Enter ICAO airport designator
Station Type Date Time Source
VTBU METAR 2019/02/20 23:00 UTC NOAA

VTBU 202300Z 01003KT 8000 FEW020 25/22 Q1013 NOSIG


Station Type Date Time Source
VTBU Decoded METAR 2019/02/20 23:00 UTC NOAA

Rayong, Thailand (VTBU) 12-38N 101-21E 5M
Feb 20, 2019 - 06:00 PM EST / 2019.02.20 2300 UTC
Wind: from the N (010 degrees) at 3 MPH (3 KT):0
Visibility: 4 mile(s):0
Sky conditions: mostly clear
Temperature: 77 F (25 C)
Dew Point: 71 F (22 C)
Relative Humidity: 83%
Pressure (altimeter): 29.91 in. Hg (1013 hPa)
ob: VTBU 202300Z 01003KT 8000 FEW020 25/22 Q1013 NOSIG
cycle: 23

Station Type Date Time Source
VTBU TAF 2019/02/20 18:42 UTC NOAA

TAF VTBU 201700Z 2018/2118 01003KT 9000 FEW020
BECMG 2102/2104 18010KT 9999
BECMG 2113/2115 35003KT


Example: see airport list